Terminal Aerodrome Forecast
Issued by NWS

Current Version | Previous Version | Text Only | Print | Product List | Glossary On
Versions: 1 2 3 4 5 6 7 8 9 10 11 12 13 14 15
000
FTUS42 KMLB 251700
TAFSUA
TAF
KSUA 251720Z 2518/2618 36011KT P6SM SCT020
     FM260100 34005KT P6SM FEW030
     FM261400 03009KT P6SM FEW040=

USA.gov is the U.S. government's official web portal to all federal, state and local government web resources and services.